Al Rekayyat — V7QF3 — position and weather

sailwx.info

Track history (hours):
 
Tides and Currents Weather Stations Pressure Air Temp Water Temp Dewpoint Dewpoint Depression Visibility Wind Speed Wind Dir Waves Ship Positions

Al Rekayyat

Last reported at 2015-Mar-10 10:32 UTC. Time now 2015-Mar-27 20:57 UTC.
Position N 01°55' E 102°20'.
Warning: this ship's position is 17 days out of date.

Length 315 m; draft 9.3 m.

Type: Ship (hazmat cat D). MMSI: 538003347.

Date/timePositionNaut miles runAvg speedWind from/ knotsBaromVisibWave heightAir tempDewpointWater temp
2015-Mar-10 10:32N 01°55' E 102°20'2319.0
2015-Mar-10 09:20N 01°44' E 102°40'7515.5
2015-Mar-10 04:31N 01°10' E 103°47'8 7.9
2015-Mar-10 03:33N 01°13' E 103°54'  
2015-Mar-03 11:17N 33°54' E 134°54'1014.2
2015-Mar-03 10:33N 34°05' E 134°55'1212.1
2015-Mar-03 09:33N 34°16' E 134°58'1312.8
2015-Mar-03 08:33N 34°29' E 135°03'9 8.5
2015-Mar-03 07:33N 34°37' E 135°01'1513.1
2015-Mar-03 06:23N 34°34' E 134°43'1112.9
2015-Mar-03 05:32N 34°45' E 134°41'4 0.1
2015-Mar-01 22:16N 34°41' E 134°41'810.4
2015-Mar-01 21:31N 34°34' E 134°43'1111.8
2015-Mar-01 20:33N 34°37' E 134°56'9 9.5
2015-Mar-01 19:33N 34°34' E 135°07'7 6.8
2015-Mar-01 18:33N 34°28' E 135°05'1312.9
2015-Mar-01 17:33N 34°16' E 134°59'9 9.4
2015-Mar-01 16:34N 34°06' E 134°59'7 6.7
2015-Mar-01 15:34N 33°60' E 134°58'8 7.4
2015-Mar-01 14:32N 33°52' E 134°58'  
Track history (hours):
 
Tides and Currents Weather Stations Pressure Air Temp Water Temp Dewpoint Dewpoint Depression Visibility Wind Speed Wind Dir Waves Ship Positions

Al Rekayyat

Last reported at 2015-Mar-10 10:32 UTC. Time now 2015-Mar-27 20:57 UTC.
Position N 01°55' E 102°20'.
Warning: this ship's position is 17 days out of date.

Length 315 m; draft 9.3 m.

Type: Ship (hazmat cat D). MMSI: 538003347.

Date/timePositionNaut miles runAvg speedWind from/ knotsBaromVisibWave heightAir tempDewpointWater temp
2015-Mar-10 10:32N 01°55' E 102°20'2319.0
2015-Mar-10 09:20N 01°44' E 102°40'7515.5
2015-Mar-10 04:31N 01°10' E 103°47'8 7.9
2015-Mar-10 03:33N 01°13' E 103°54'  
2015-Mar-03 11:17N 33°54' E 134°54'1014.2
2015-Mar-03 10:33N 34°05' E 134°55'1212.1
2015-Mar-03 09:33N 34°16' E 134°58'1312.8
2015-Mar-03 08:33N 34°29' E 135°03'9 8.5
2015-Mar-03 07:33N 34°37' E 135°01'1513.1
2015-Mar-03 06:23N 34°34' E 134°43'1112.9
2015-Mar-03 05:32N 34°45' E 134°41'4 0.1
2015-Mar-01 22:16N 34°41' E 134°41'810.4
2015-Mar-01 21:31N 34°34' E 134°43'1111.8
2015-Mar-01 20:33N 34°37' E 134°56'9 9.5
2015-Mar-01 19:33N 34°34' E 135°07'7 6.8
2015-Mar-01 18:33N 34°28' E 135°05'1312.9
2015-Mar-01 17:33N 34°16' E 134°59'9 9.4
2015-Mar-01 16:34N 34°06' E 134°59'7 6.7
2015-Mar-01 15:34N 33°60' E 134°58'8 7.4
2015-Mar-01 14:32N 33°52' E 134°58'  

Dump ship's entire track history